Time,TemperatureF,DewpointF,PressureIn,WindDirection,WindDirectionDegrees,WindSpeedMPH,WindSpeedGustMPH,Humidity,HourlyPrecipIn,Conditions,Clouds,dailyrainin,SoftwareType,DateUTC
2013-01-29 00:15:00,57.5,47.0,30.13,South,189,7.0,11.0,68,0.00,,,0.00,weatherlink.com 1.10,2013-01-29 05:15:00,
2013-01-29 00:30:00,57.5,47.0,30.12,South,184,6.0,7.0,68,0.00,,,0.00,weatherlink.com 1.10,2013-01-29 05:30:00,
2013-01-29 00:45:00,57.4,47.0,30.12,West,263,0.0,6.0,69,0.00,,,0.00,weatherlink.com 1.10,2013-01-29 05:45:00,
2013-01-29 01:00:00,57.1,47.0,30.12,SSW,197,1.0,6.0,70,0.00,,,0.00,weatherlink.com 1.10,2013-01-29 06:00:00,
2013-01-29 01:15:00,57.2,47.0,30.12,WSW,245,0.0,11.0,70,0.00,,,0.00,weatherlink.com 1.10,2013-01-29 06:15:00,
2013-01-29 01:30:00,57.1,48.0,30.11,West,259,0.0,7.0,71,0.00,,,0.00,weatherlink.com 1.10,2013-01-29 06:30:00,
2013-01-29 01:45:00,56.9,48.0,30.12,West,262,1.0,6.0,73,0.00,,,0.00,weatherlink.com 1.10,2013-01-29 06:45:00,
2013-01-29 02:00:00,56.9,49.0,30.12,SW,229,1.0,5.0,74,0.00,,,0.00,weatherlink.com 1.10,2013-01-29 07:00:00,
2013-01-29 02:15:00,56.5,48.0,30.12,West,269,1.0,2.0,73,0.00,,,0.00,weatherlink.com 1.10,2013-01-29 07:15:00,
2013-01-29 02:30:00,56.5,48.0,30.12,North,5,0.0,6.0,73,0.00,,,0.00,weatherlink.com 1.10,2013-01-29 07:30:00,
2013-01-29 02:45:00,56.5,48.0,30.13,NNE,29,0.0,8.0,73,0.00,,,0.00,weatherlink.com 1.10,2013-01-29 07:45:00,
2013-01-29 03:00:00,56.4,48.0,30.11,WSW,252,1.0,7.0,74,0.00,,,0.00,weatherlink.com 1.10,2013-01-29 08:00:00,
2013-01-29 03:15:00,56.1,48.0,30.11,WNW,288,0.0,6.0,75,0.00,,,0.00,weatherlink.com 1.10,2013-01-29 08:15:00,
2013-01-29 03:30:00,55.9,48.0,30.11,SW,217,4.0,5.0,76,0.00,,,0.00,weatherlink.com 1.10,2013-01-29 08:30:00,
2013-01-29 03:45:00,56.1,49.0,30.11,West,263,0.0,4.0,76,0.00,,,0.00,weatherlink.com 1.10,2013-01-29 08:45:00,
2013-01-29 04:00:00,56.2,49.0,30.11,SW,232,0.0,4.0,77,0.00,,,0.00,weatherlink.com 1.10,2013-01-29 09:00:00,
2013-01-29 04:15:00,56.2,49.0,30.11,WSW,254,1.0,4.0,77,0.00,,,0.00,weatherlink.com 1.10,2013-01-29 09:15:00,
2013-01-29 04:30:00,56.6,49.0,30.10,SSW,209,0.0,3.0,76,0.00,,,0.00,weatherlink.com 1.10,2013-01-29 09:30:00,
2013-01-29 04:45:00,56.6,49.0,30.10,WSW,250,1.0,3.0,76,0.00,,,0.00,weatherlink.com 1.10,2013-01-29 09:45:00,
2013-01-29 05:00:00,56.6,49.0,30.11,SW,223,0.0,6.0,77,0.00,,,0.00,weatherlink.com 1.10,2013-01-29 10:00:00,
2013-01-29 05:15:00,56.6,49.0,30.10,WSW,246,1.0,6.0,77,0.00,,,0.00,weatherlink.com 1.10,2013-01-29 10:15:00,
2013-01-29 05:30:00,56.8,49.0,30.10,NW,312,0.0,5.0,76,0.00,,,0.00,weatherlink.com 1.10,2013-01-29 10:30:00,
2013-01-29 05:45:00,56.6,49.0,30.10,West,266,0.0,3.0,77,0.00,,,0.00,weatherlink.com 1.10,2013-01-29 10:45:00,
2013-01-29 06:00:00,56.5,50.0,30.11,West,264,2.0,6.0,78,0.00,,,0.00,weatherlink.com 1.10,2013-01-29 11:00:00,
2013-01-29 06:15:00,56.2,49.0,30.11,North,355,0.0,2.0,77,0.00,,,0.00,weatherlink.com 1.10,2013-01-29 11:15:00,
2013-01-29 06:30:00,55.5,49.0,30.11,North,355,0.0,0.0,78,0.00,,,0.00,weatherlink.com 1.10,2013-01-29 11:30:00,
2013-01-29 06:45:00,54.7,47.0,30.11,WNW,284,0.0,2.0,76,0.00,,,0.00,weatherlink.com 1.10,2013-01-29 11:45:00,
2013-01-29 07:00:00,54.1,47.0,30.11,West,270,0.0,1.0,77,0.00,,,0.00,weatherlink.com 1.10,2013-01-29 12:00:00,
2013-01-29 07:15:00,53.8,47.0,30.12,West,277,2.0,4.0,78,0.00,,,0.00,weatherlink.com 1.10,2013-01-29 12:15:00,
2013-01-29 07:30:00,53.1,47.0,30.12,West,262,0.0,1.0,80,0.00,,,0.00,weatherlink.com 1.10,2013-01-29 12:30:00,
2013-01-29 07:45:00,53.1,47.0,30.11,West,262,0.0,0.0,80,0.00,,,0.00,weatherlink.com 1.10,2013-01-29 12:45:00,
2013-01-29 08:01:00,52.8,47.0,30.13,WSW,251,0.0,2.0,80,0.00,,,0.00,weatherlink.com 1.10,2013-01-29 13:01:00,
2013-01-29 08:15:00,53.5,47.0,30.12,SW,221,0.0,1.0,79,0.00,,,0.00,weatherlink.com 1.10,2013-01-29 13:15:00,
2013-01-29 08:31:00,54.1,47.0,30.12,SW,221,0.0,0.0,77,0.00,,,0.00,weatherlink.com 1.10,2013-01-29 13:31:00,
2013-01-29 08:45:00,55.2,47.0,30.13,WSW,245,0.0,2.0,75,0.00,,,0.00,weatherlink.com 1.10,2013-01-29 13:45:00,
2013-01-29 09:00:00,56.5,48.0,30.12,WSW,245,0.0,1.0,72,0.00,,,0.00,weatherlink.com 1.10,2013-01-29 14:00:00,
2013-01-29 09:15:00,57.9,48.0,30.12,WSW,245,0.0,1.0,69,0.00,,,0.00,weatherlink.com 1.10,2013-01-29 14:15:00,
2013-01-29 09:30:00,59.5,48.0,30.12,WSW,248,0.0,1.0,67,0.00,,,0.00,weatherlink.com 1.10,2013-01-29 14:30:00,
2013-01-29 09:45:00,59.5,48.0,30.12,ENE,71,0.0,3.0,67,0.00,,,0.00,weatherlink.com 1.10,2013-01-29 14:45:00,
2013-01-29 10:00:00,60.4,49.0,30.13,East,99,0.0,5.0,67,0.00,,,0.00,weatherlink.com 1.10,2013-01-29 15:00:00,
2013-01-29 10:15:00,62.3,49.0,30.13,WSW,256,0.0,2.0,63,0.00,,,0.00,weatherlink.com 1.10,2013-01-29 15:15:00,
2013-01-29 10:30:00,64.1,49.0,30.12,ENE,64,0.0,2.0,58,0.00,,,0.00,weatherlink.com 1.10,2013-01-29 15:30:00,
2013-01-29 10:45:00,63.9,49.0,30.12,NNW,339,2.0,2.0,59,0.00,,,0.00,weatherlink.com 1.10,2013-01-29 15:45:00,
2013-01-29 11:00:00,64.1,49.0,30.11,ESE,102,1.0,4.0,59,0.00,,,0.00,weatherlink.com 1.10,2013-01-29 16:00:00,
2013-01-29 11:16:00,65.1,50.0,30.10,East,95,0.0,3.0,58,0.00,,,0.00,weatherlink.com 1.10,2013-01-29 16:16:00,
2013-01-29 11:31:00,66.5,50.0,30.10,East,93,1.0,3.0,55,0.00,,,0.00,weatherlink.com 1.10,2013-01-29 16:31:00,
2013-01-29 11:46:00,67.0,50.0,30.09,NNE,23,0.0,3.0,54,0.00,,,0.00,weatherlink.com 1.10,2013-01-29 16:46:00,
2013-01-29 12:01:00,65.9,49.0,30.09,ENE,72,1.0,5.0,55,0.00,,,0.00,weatherlink.com 1.10,2013-01-29 17:01:00,
2013-01-29 12:16:00,66.0,49.0,30.08,East,86,0.0,2.0,54,0.00,,,0.00,weatherlink.com 1.10,2013-01-29 17:16:00,
2013-01-29 12:31:00,67.3,48.0,30.08,SW,236,0.0,4.0,51,0.00,,,0.00,weatherlink.com 1.10,2013-01-29 17:31:00,
2013-01-29 12:46:00,67.8,49.0,30.07,West,271,0.0,4.0,52,0.00,,,0.00,weatherlink.com 1.10,2013-01-29 17:46:00,
2013-01-29 13:01:00,67.7,49.0,30.05,East,86,0.0,3.0,51,0.00,,,0.00,weatherlink.com 1.10,2013-01-29 18:01:00,
2013-01-29 13:16:00,68.7,50.0,30.04,ENE,78,0.0,2.0,51,0.00,,,0.00,weatherlink.com 1.10,2013-01-29 18:16:00,
2013-01-29 13:31:00,69.2,49.0,30.04,SSW,202,0.0,4.0,49,0.00,,,0.00,weatherlink.com 1.10,2013-01-29 18:31:00,
2013-01-29 13:46:00,69.2,49.0,30.03,WSW,254,0.0,8.0,49,0.00,,,0.00,weatherlink.com 1.10,2013-01-29 18:46:00,
2013-01-29 14:01:00,70.2,49.0,30.02,ENE,71,2.0,3.0,48,0.00,,,0.00,weatherlink.com 1.10,2013-01-29 19:01:00,
2013-01-29 14:16:00,71.4,49.0,30.01,NE,36,0.0,4.0,45,0.00,,,0.00,weatherlink.com 1.10,2013-01-29 19:16:00,
2013-01-29 14:31:00,70.7,50.0,30.00,ENE,69,0.0,0.0,48,0.00,,,0.00,weatherlink.com 1.10,2013-01-29 19:31:00,
2013-01-29 14:46:00,71.0,50.0,30.00,ESE,108,0.0,1.0,48,0.00,,,0.00,weatherlink.com 1.10,2013-01-29 19:46:00,
2013-01-29 15:01:00,70.7,50.0,30.00,ESE,109,0.0,1.0,48,0.00,,,0.00,weatherlink.com 1.10,2013-01-29 20:01:00,
2013-01-29 15:16:00,71.0,50.0,30.00,ESE,107,0.0,2.0,47,0.00,,,0.00,weatherlink.com 1.10,2013-01-29 20:16:00,
2013-01-29 15:31:00,71.2,49.0,29.99,East,101,0.0,2.0,45,0.00,,,0.00,weatherlink.com 1.10,2013-01-29 20:31:00,
2013-01-29 15:46:00,71.2,48.0,29.99,East,91,2.0,6.0,44,0.00,,,0.00,weatherlink.com 1.10,2013-01-29 20:46:00,
2013-01-29 16:01:00,71.0,47.0,29.98,ESE,110,3.0,7.0,42,0.00,,,0.00,weatherlink.com 1.10,2013-01-29 21:01:00,
2013-01-29 16:16:00,70.8,48.0,29.97,East,90,5.0,6.0,44,0.00,,,0.00,weatherlink.com 1.10,2013-01-29 21:16:00,
2013-01-29 16:31:00,70.3,47.0,29.97,ESE,102,1.0,4.0,44,0.00,,,0.00,weatherlink.com 1.10,2013-01-29 21:31:00,
2013-01-29 16:46:00,69.8,47.0,29.97,East,94,1.0,6.0,44,0.00,,,0.00,weatherlink.com 1.10,2013-01-29 21:46:00,
2013-01-29 17:01:00,69.3,47.0,29.96,East,94,0.0,3.0,45,0.00,,,0.00,weatherlink.com 1.10,2013-01-29 22:01:00,
2013-01-29 17:16:00,68.8,46.0,29.96,East,80,2.0,7.0,44,0.00,,,0.00,weatherlink.com 1.10,2013-01-29 22:16:00,
2013-01-29 17:31:00,67.7,46.0,29.96,NW,315,3.0,5.0,46,0.00,,,0.00,weatherlink.com 1.10,2013-01-29 22:31:00,
2013-01-29 17:46:00,66.5,45.0,29.97,ENE,65,1.0,8.0,47,0.00,,,0.00,weatherlink.com 1.10,2013-01-29 22:46:00,
2013-01-29 18:01:00,65.4,45.0,29.97,North,355,0.0,3.0,48,0.00,,,0.00,weatherlink.com 1.10,2013-01-29 23:01:00,
2013-01-29 18:16:00,64.4,45.0,29.97,ENE,58,0.0,2.0,50,0.00,,,0.00,weatherlink.com 1.10,2013-01-29 23:16:00,
2013-01-29 18:32:00,63.8,45.0,29.97,NNE,33,1.0,3.0,50,0.00,,,0.00,weatherlink.com 1.10,2013-01-29 23:32:00,
2013-01-29 19:02:00,63.6,47.0,29.96,WNW,283,0.0,4.0,56,0.00,,,0.00,weatherlink.com 1.10,2013-01-30 00:02:00,
2013-01-29 19:17:00,63.0,48.0,29.96,East,99,0.0,3.0,58,0.00,,,0.00,weatherlink.com 1.10,2013-01-30 00:17:00,
2013-01-29 19:31:00,62.5,48.0,29.97,NNW,327,0.0,2.0,59,0.00,,,0.00,weatherlink.com 1.10,2013-01-30 00:31:00,
2013-01-29 19:47:00,62.8,50.0,29.96,North,355,1.0,6.0,64,0.00,,,0.00,weatherlink.com 1.10,2013-01-30 00:47:00,
2013-01-29 20:16:00,62.3,51.0,29.96,NNE,27,0.0,3.0,67,0.00,,,0.00,weatherlink.com 1.10,2013-01-30 01:16:00,
2013-01-29 20:31:00,61.9,51.0,29.96,NE,49,2.0,5.0,68,0.00,,,0.00,weatherlink.com 1.10,2013-01-30 01:31:00,
2013-01-29 20:46:00,61.5,51.0,29.96,ENE,65,0.0,2.0,69,0.00,,,0.00,weatherlink.com 1.10,2013-01-30 01:46:00,
2013-01-29 21:02:00,61.9,52.0,29.96,NE,51,0.0,3.0,69,0.00,,,0.00,weatherlink.com 1.10,2013-01-30 02:02:00,
2013-01-29 21:16:00,61.1,51.0,29.96,NE,51,1.0,1.0,70,0.00,,,0.00,weatherlink.com 1.10,2013-01-30 02:16:00,
2013-01-29 21:32:00,60.1,51.0,29.97,North,5,0.0,0.0,73,0.00,,,0.00,weatherlink.com 1.10,2013-01-30 02:32:00,
2013-01-29 21:46:00,59.8,52.0,29.98,NNE,13,0.0,1.0,74,0.00,,,0.00,weatherlink.com 1.10,2013-01-30 02:46:00,
2013-01-29 22:01:00,59.5,52.0,29.96,NNE,13,0.0,1.0,76,0.00,,,0.00,weatherlink.com 1.10,2013-01-30 03:01:00,
2013-01-29 22:16:00,59.2,51.0,29.96,SSW,204,0.0,2.0,75,0.00,,,0.00,weatherlink.com 1.10,2013-01-30 03:16:00,
2013-01-29 22:31:00,59.1,52.0,29.95,SSW,206,0.0,1.0,77,0.00,,,0.00,weatherlink.com 1.10,2013-01-30 03:31:00,
2013-01-29 22:47:00,59.2,52.0,29.94,SSW,206,0.0,0.0,76,0.00,,,0.00,weatherlink.com 1.10,2013-01-30 03:47:00,
2013-01-29 23:01:00,58.9,52.0,29.94,SSW,207,0.0,1.0,78,0.00,,,0.00,weatherlink.com 1.10,2013-01-30 04:01:00,
2013-01-29 23:16:00,59.7,53.0,29.94,West,263,0.0,4.0,79,0.00,,,0.00,weatherlink.com 1.10,2013-01-30 04:16:00,
2013-01-29 23:32:00,60.8,54.0,29.93,WNW,295,0.0,1.0,78,0.00,,,0.00,weatherlink.com 1.10,2013-01-30 04:32:00,
2013-01-29 23:46:00,60.4,53.0,29.93,ESE,106,0.0,3.0,76,0.00,,,0.00,weatherlink.com 1.10,2013-01-30 04:46:00,